Time;durP1;ratioP1;P1;durP2;ratioP2;P2;SDS_P1;SDS_P2;PMS_P1;PMS_P2;Temp;Humidity;BMP_temperature;BMP_pressure;BME280_temperature;BME280_humidity;BME280_pressure;Samples;Min_cycle;Max_cycle;Signal;HPM_P1;HPM_P2
2022/12/28 00:00:18;;;;;;;;;;;7.20;99.90;;;;;;5013223;28;19917;-82
2022/12/28 00:02:43;;;;;;;;;;;7.20;99.90;;;;;;5012801;28;20367;-81
2022/12/28 00:05:09;;;;;;;;;;;7.20;99.90;;;;;;5011789;28;19914;-81
2022/12/28 00:07:34;;;;;;;;;;;7.30;99.90;;;;;;5011944;28;19910;-82
2022/12/28 00:10:00;;;;;;;;;;;7.30;99.90;;;;;;5012932;28;19913;-81
2022/12/28 00:12:25;;;;;;;;;;;7.40;99.90;;;;;;5011545;28;20375;-81
2022/12/28 00:14:51;;;;;;;;;;;7.40;99.90;;;;;;5024565;28;19963;-83
2022/12/28 00:17:16;;;;;;;;;;;7.40;99.90;;;;;;5030021;28;19910;-82
2022/12/28 00:19:42;;;;;;;;;;;7.50;99.90;;;;;;5030676;28;19910;-84
2022/12/28 00:22:07;;;;;;;;;;;7.50;99.90;;;;;;5028150;28;19916;-83
2022/12/28 00:24:33;;;;;;;;;;;7.50;99.90;;;;;;5029198;28;19972;-83
2022/12/28 00:26:59;;;;;;;;;;;7.50;99.90;;;;;;5021352;28;20394;-83
2022/12/28 00:29:24;;;;;;;;;;;7.50;99.90;;;;;;5022165;28;19910;-83
2022/12/28 00:31:50;;;;;;;;;;;7.40;99.90;;;;;;5036630;28;19913;-84
2022/12/28 00:34:15;;;;;;;;;;;7.30;99.90;;;;;;5021050;28;19909;-83
2022/12/28 00:36:41;;;;;;;;;;;7.40;99.90;;;;;;5019622;28;20370;-83
2022/12/28 00:39:06;;;;;;;;;;;7.30;99.90;;;;;;5019796;28;19963;-83
2022/12/28 00:41:31;;;;;;;;;;;7.30;99.90;;;;;;5035912;28;19910;-84
2022/12/28 00:43:57;;;;;;;;;;;7.30;99.90;;;;;;5021434;28;19957;-82
2022/12/28 00:46:22;;;;;;;;;;;7.30;99.90;;;;;;5020545;28;19910;-83
2022/12/28 00:48:48;;;;;;;;;;;7.20;99.90;;;;;;5020098;28;19933;-83
2022/12/28 00:51:14;;;;;;;;;;;7.20;99.90;;;;;;5019889;28;20294;-83
2022/12/28 00:53:40;;;;;;;;;;;7.20;99.90;;;;;;5020289;28;20001;-84
2022/12/28 00:56:09;;;;;;;;;;;7.30;99.90;;;;;;5020547;28;19937;-84
2022/12/28 00:58:35;;;;;;;;;;;7.30;99.90;;;;;;5019344;28;19913;-83
2022/12/28 01:01:01;;;;;;;;;;;7.40;99.90;;;;;;5018295;28;20382;-84
2022/12/28 01:03:26;;;;;;;;;;;7.40;99.90;;;;;;5021101;28;19921;-82
2022/12/28 01:05:52;;;;;;;;;;;7.40;99.90;;;;;;5021342;28;20006;-83
2022/12/28 01:08:17;;;;;;;;;;;7.40;99.90;;;;;;5034975;28;19913;-82
2022/12/28 01:10:43;;;;;;;;;;;7.40;99.90;;;;;;5017391;28;19916;-84
2022/12/28 01:13:08;;;;;;;;;;;7.50;99.90;;;;;;5017292;28;19909;-83
2022/12/28 01:15:34;;;;;;;;;;;7.40;99.90;;;;;;5017309;28;19959;-83
2022/12/28 01:17:59;;;;;;;;;;;7.40;99.90;;;;;;5017688;28;19909;-83
2022/12/28 01:20:24;;;;;;;;;;;7.30;99.90;;;;;;5019034;28;19932;-82
2022/12/28 01:22:50;;;;;;;;;;;7.30;99.90;;;;;;5019091;28;19973;-83
2022/12/28 01:25:16;;;;;;;;;;;7.40;99.90;;;;;;5017239;28;19910;-83
2022/12/28 01:27:41;;;;;;;;;;;7.40;99.90;;;;;;5034055;28;19972;-82
2022/12/28 01:30:07;;;;;;;;;;;7.40;99.90;;;;;;5018164;28;19909;-82
2022/12/28 01:32:32;;;;;;;;;;;7.30;99.90;;;;;;5034043;28;20291;-83
2022/12/28 01:34:58;;;;;;;;;;;7.40;99.90;;;;;;5017413;28;20457;-82
2022/12/28 01:37:23;;;;;;;;;;;7.30;99.90;;;;;;5017284;28;19979;-83
2022/12/28 01:39:49;;;;;;;;;;;7.30;99.90;;;;;;5017494;28;19967;-82
2022/12/28 01:42:15;;;;;;;;;;;7.30;99.90;;;;;;5017100;28;19910;-84
2022/12/28 01:44:41;;;;;;;;;;;7.30;99.90;;;;;;5018433;28;19924;-83
2022/12/28 01:47:09;;;;;;;;;;;7.30;99.90;;;;;;5019155;28;19995;-82
2022/12/28 01:49:49;;;;;;;;;;;7.40;99.90;;;;;;5016484;28;19909;-83
2022/12/28 01:52:19;;;;;;;;;;;7.40;99.90;;;;;;5016702;28;19909;-84
2022/12/28 01:54:47;;;;;;;;;;;7.50;99.90;;;;;;5033880;28;19916;-83
2022/12/28 01:57:13;;;;;;;;;;;7.50;99.90;;;;;;5016545;28;19914;-83
2022/12/28 01:59:40;;;;;;;;;;;7.50;99.90;;;;;;5057075;23;19991;-80
2022/12/28 02:02:06;;;;;;;;;;;7.50;99.90;;;;;;5073100;28;20369;-80
2022/12/28 02:04:31;;;;;;;;;;;7.60;99.90;;;;;;5057310;28;19923;-80
2022/12/28 02:06:57;;;;;;;;;;;7.60;99.90;;;;;;5056524;28;20007;-80
2022/12/28 02:09:26;;;;;;;;;;;7.70;99.90;;;;;;5056125;28;19919;-80
2022/12/28 02:11:53;;;;;;;;;;;7.70;99.90;;;;;;5051738;28;19996;-81
2022/12/28 02:14:18;;;;;;;;;;;7.80;99.90;;;;;;5048053;28;19995;-80
2022/12/28 02:16:44;;;;;;;;;;;7.80;99.90;;;;;;5040594;28;19956;-79
2022/12/28 02:19:12;;;;;;;;;;;7.90;99.90;;;;;;5036847;28;19917;-80
2022/12/28 02:21:59;;;;;;;;;;;7.90;99.90;;;;;;5036199;28;19917;-79
2022/12/28 02:24:47;;;;;;;;;;;7.90;99.90;;;;;;5034983;28;19920;-81
2022/12/28 02:27:22;;;;;;;;;;;8.00;99.90;;;;;;5036558;28;19916;-80
2022/12/28 02:29:48;;;;;;;;;;;8.00;99.90;;;;;;5036427;28;19909;-79
2022/12/28 02:32:25;;;;;;;;;;;8.00;99.90;;;;;;5035560;28;19916;-80
2022/12/28 02:34:53;;;;;;;;;;;8.10;99.90;;;;;;5036260;28;19913;-80
2022/12/28 02:37:25;;;;;;;;;;;8.10;99.90;;;;;;5035745;28;20344;-80
2022/12/28 02:40:29;;;;;;;;;;;8.20;99.90;;;;;;5034086;28;19915;-80
2022/12/28 02:42:54;;;;;;;;;;;8.20;99.90;;;;;;4973992;28;20354;-80
2022/12/28 02:51:22;;;;;;;;;;;8.30;99.90;;;;;;5035588;28;19915;-80
2022/12/28 02:53:54;;;;;;;;;;;8.40;99.90;;;;;;5024545;28;19915;-80
2022/12/28 02:56:31;;;;;;;;;;;8.40;99.90;;;;;;5035864;28;19909;-78
2022/12/28 02:59:22;;;;;;;;;;;8.40;99.90;;;;;;5035127;28;20421;-78
2022/12/28 03:01:54;;;;;;;;;;;8.40;99.90;;;;;;5035309;28;20320;-78
2022/12/28 03:04:28;;;;;;;;;;;8.40;99.90;;;;;;5035389;28;19917;-79
2022/12/28 03:10:12;;;;;;;;;;;8.40;99.90;;;;;;5035071;28;19919;-80
2022/12/28 03:12:41;;;;;;;;;;;8.50;99.90;;;;;;5034447;28;19913;-80
2022/12/28 03:15:10;;;;;;;;;;;8.50;99.90;;;;;;5034811;28;19917;-80
2022/12/28 03:31:23;;;;;;;;;;;8.70;99.90;;;;;;5034490;28;19912;-80
2022/12/28 03:33:51;;;;;;;;;;;8.60;99.90;;;;;;5034783;28;19943;-79
2022/12/28 03:36:34;;;;;;;;;;;8.60;99.90;;;;;;5033547;28;20080;-80
2022/12/28 03:39:00;;;;;;;;;;;8.70;99.90;;;;;;5034433;28;19920;-78
2022/12/28 03:41:41;;;;;;;;;;;8.70;99.90;;;;;;5032722;28;19909;-79
2022/12/28 03:44:14;;;;;;;;;;;8.70;99.90;;;;;;5034520;28;19917;-78
2022/12/28 03:46:45;;;;;;;;;;;8.70;99.90;;;;;;5034515;28;19916;-78
2022/12/28 03:49:11;;;;;;;;;;;8.80;99.90;;;;;;5032873;28;19914;-80
2022/12/28 03:51:37;;;;;;;;;;;8.80;99.90;;;;;;5032763;28;19967;-78
2022/12/28 03:54:03;;;;;;;;;;;8.80;99.90;;;;;;5038003;28;19916;-80
2022/12/28 03:56:28;;;;;;;;;;;8.80;99.90;;;;;;5037846;28;19909;-79
2022/12/28 03:58:55;;;;;;;;;;;8.90;99.90;;;;;;5037791;28;19967;-79
2022/12/28 04:01:20;;;;;;;;;;;9.00;99.90;;;;;;5036443;28;20435;-78
2022/12/28 04:03:46;;;;;;;;;;;9.00;99.90;;;;;;5037688;28;19956;-78
2022/12/28 04:06:12;;;;;;;;;;;9.00;99.90;;;;;;5036583;28;20329;-79
2022/12/28 04:08:37;;;;;;;;;;;9.00;99.90;;;;;;5036320;28;19909;-79
2022/12/28 04:11:03;;;;;;;;;;;9.00;99.90;;;;;;5037660;28;19909;-79
2022/12/28 04:13:32;;;;;;;;;;;9.00;99.90;;;;;;5037635;28;19909;-78
2022/12/28 04:16:03;;;;;;;;;;;9.10;99.90;;;;;;5037491;28;19916;-78
2022/12/28 04:18:32;;;;;;;;;;;9.10;99.90;;;;;;5037637;28;20322;-79
2022/12/28 04:20:58;;;;;;;;;;;9.20;99.90;;;;;;5037091;28;19920;-80
2022/12/28 04:23:24;;;;;;;;;;;9.20;99.90;;;;;;5035836;28;19913;-79
2022/12/28 04:26:02;;;;;;;;;;;9.20;99.90;;;;;;5036707;28;19917;-78
2022/12/28 04:28:28;;;;;;;;;;;9.20;99.90;;;;;;5035997;28;19909;-78
2022/12/28 04:30:54;;;;;;;;;;;9.30;99.90;;;;;;5036285;28;19916;-80
2022/12/28 04:33:20;;;;;;;;;;;9.30;99.90;;;;;;5036786;28;19909;-78
2022/12/28 04:35:45;;;;;;;;;;;9.30;99.90;;;;;;5036933;28;20446;-78
2022/12/28 04:38:11;;;;;;;;;;;9.40;99.90;;;;;;5035722;28;20317;-78
2022/12/28 04:40:36;;;;;;;;;;;9.40;99.90;;;;;;5036621;28;19944;-79
2022/12/28 04:43:02;;;;;;;;;;;9.50;99.90;;;;;;5036319;28;20000;-78
2022/12/28 04:45:27;;;;;;;;;;;9.60;99.90;;;;;;5035033;28;20517;-78
2022/12/28 04:47:55;;;;;;;;;;;9.60;99.90;;;;;;5036847;28;19957;-79
2022/12/28 04:50:21;;;;;;;;;;;9.60;99.90;;;;;;5036405;28;20371;-78
2022/12/28 04:52:46;;;;;;;;;;;9.70;99.90;;;;;;5036397;28;19962;-79
2022/12/28 04:55:12;;;;;;;;;;;9.70;99.90;;;;;;5036056;28;20294;-79
2022/12/28 04:57:37;;;;;;;;;;;9.70;99.90;;;;;;5036034;28;19909;-78
2022/12/28 05:00:03;;;;;;;;;;;9.70;99.90;;;;;;5035924;28;19917;-78
2022/12/28 05:02:29;;;;;;;;;;;9.70;99.90;;;;;;5035202;28;19971;-78
2022/12/28 05:04:55;;;;;;;;;;;9.80;99.90;;;;;;5035949;28;19960;-79
2022/12/28 05:07:20;;;;;;;;;;;9.80;99.90;;;;;;5035945;28;19910;-78
2022/12/28 05:09:46;;;;;;;;;;;9.90;99.90;;;;;;5035934;28;19913;-78
2022/12/28 05:12:11;;;;;;;;;;;9.90;99.90;;;;;;5034301;28;20317;-78
2022/12/28 05:14:36;;;;;;;;;;;9.90;99.90;;;;;;5035901;28;20005;-78
2022/12/28 05:17:02;;;;;;;;;;;9.90;99.90;;;;;;5036015;28;19916;-78
2022/12/28 05:19:27;;;;;;;;;;;10.00;99.90;;;;;;5034811;28;19995;-78
2022/12/28 05:21:53;;;;;;;;;;;10.00;99.90;;;;;;5035408;28;20321;-79
2022/12/28 05:24:19;;;;;;;;;;;10.10;99.90;;;;;;5035573;28;19966;-78
2022/12/28 05:26:44;;;;;;;;;;;10.10;99.90;;;;;;5035557;28;19924;-78
2022/12/28 05:29:10;;;;;;;;;;;10.10;99.90;;;;;;5051605;28;19913;-78
2022/12/28 05:31:35;;;;;;;;;;;10.10;99.90;;;;;;5054039;28;20271;-80
2022/12/28 05:34:01;;;;;;;;;;;10.10;99.90;;;;;;5055308;28;20328;-78
2022/12/28 05:36:26;;;;;;;;;;;10.10;99.90;;;;;;5054221;28;19916;-78
2022/12/28 05:38:52;;;;;;;;;;;10.10;99.90;;;;;;5054016;28;19908;-78
2022/12/28 05:41:22;;;;;;;;;;;10.00;99.90;;;;;;5054854;28;19947;-78
2022/12/28 05:43:48;;;;;;;;;;;10.10;99.90;;;;;;5055274;28;19913;-79
2022/12/28 05:46:18;;;;;;;;;;;10.10;99.90;;;;;;5055278;28;19958;-78
2022/12/28 05:48:44;;;;;;;;;;;10.10;99.90;;;;;;5055266;28;19909;-78
2022/12/28 05:51:11;;;;;;;;;;;10.20;99.90;;;;;;5054957;28;20374;-78
2022/12/28 05:53:36;;;;;;;;;;;10.20;99.90;;;;;;5055513;28;19916;-78
2022/12/28 05:56:06;;;;;;;;;;;10.20;99.90;;;;;;5054933;28;19909;-78
2022/12/28 05:58:32;;;;;;;;;;;10.20;99.90;;;;;;5053768;28;19978;-78
2022/12/28 06:01:11;;;;;;;;;;;10.30;99.90;;;;;;5054805;28;20393;-78
2022/12/28 06:03:37;;;;;;;;;;;10.30;99.90;;;;;;5053072;28;19916;-78
2022/12/28 06:06:03;;;;;;;;;;;10.30;99.90;;;;;;5053410;28;20000;-78
2022/12/28 06:08:29;;;;;;;;;;;10.30;99.90;;;;;;5055031;28;19909;-78
2022/12/28 06:10:58;;;;;;;;;;;10.30;99.90;;;;;;5054580;28;19986;-78
2022/12/28 06:13:23;;;;;;;;;;;10.40;99.90;;;;;;5053468;28;20397;-78
2022/12/28 06:15:48;;;;;;;;;;;10.40;99.90;;;;;;5052622;28;19909;-78
2022/12/28 06:18:14;;;;;;;;;;;10.40;99.90;;;;;;5054749;28;20361;-78
2022/12/28 06:20:39;;;;;;;;;;;10.40;99.90;;;;;;5054524;28;20351;-78
2022/12/28 06:23:05;;;;;;;;;;;10.50;99.90;;;;;;5054003;28;19909;-78
2022/12/28 06:25:30;;;;;;;;;;;10.40;99.90;;;;;;5054441;28;20007;-78
2022/12/28 06:27:56;;;;;;;;;;;10.50;99.90;;;;;;5052924;28;19913;-78
2022/12/28 06:30:21;;;;;;;;;;;10.40;99.90;;;;;;5054156;28;19909;-78
2022/12/28 06:32:47;;;;;;;;;;;10.40;99.90;;;;;;5053818;28;19930;-79
2022/12/28 06:35:12;;;;;;;;;;;10.40;99.90;;;;;;5053037;28;19909;-78
2022/12/28 06:37:38;;;;;;;;;;;10.40;99.90;;;;;;5053025;28;19909;-78
2022/12/28 06:40:03;;;;;;;;;;;10.40;99.90;;;;;;5052783;28;19913;-79
2022/12/28 06:42:29;;;;;;;;;;;10.40;99.90;;;;;;5053790;28;19908;-78
2022/12/28 06:44:54;;;;;;;;;;;10.40;99.90;;;;;;5052485;28;20400;-78
2022/12/28 06:47:20;;;;;;;;;;;10.40;99.90;;;;;;5054119;28;19909;-78
2022/12/28 06:49:45;;;;;;;;;;;10.40;99.90;;;;;;5052617;28;19913;-78
2022/12/28 06:52:11;;;;;;;;;;;10.50;99.90;;;;;;5054303;28;19942;-78
2022/12/28 06:54:36;;;;;;;;;;;10.40;99.90;;;;;;5052794;28;19913;-78
2022/12/28 06:57:01;;;;;;;;;;;10.50;99.90;;;;;;5054180;28;19962;-79
2022/12/28 06:59:27;;;;;;;;;;;10.50;99.90;;;;;;5054102;28;19921;-78
2022/12/28 07:01:52;;;;;;;;;;;10.50;99.90;;;;;;5053790;28;19913;-78
2022/12/28 07:04:18;;;;;;;;;;;10.40;99.90;;;;;;5053956;28;20380;-79
2022/12/28 07:06:43;;;;;;;;;;;10.50;99.90;;;;;;5053898;28;19909;-78
2022/12/28 07:09:12;;;;;;;;;;;10.40;99.90;;;;;;5054260;28;19909;-78
2022/12/28 07:11:37;;;;;;;;;;;10.50;99.90;;;;;;5054077;28;20003;-78
2022/12/28 07:14:03;;;;;;;;;;;10.50;99.90;;;;;;5053084;28;19962;-78
2022/12/28 07:16:28;;;;;;;;;;;10.50;99.90;;;;;;5053903;28;19996;-78
2022/12/28 07:18:54;;;;;;;;;;;10.50;99.90;;;;;;5052498;28;20264;-78
2022/12/28 07:21:20;;;;;;;;;;;10.50;99.90;;;;;;5053761;28;19909;-78
2022/12/28 07:23:46;;;;;;;;;;;10.50;99.90;;;;;;5054012;28;20358;-78
2022/12/28 07:26:12;;;;;;;;;;;10.50;99.90;;;;;;5055624;28;19909;-78
2022/12/28 07:28:38;;;;;;;;;;;10.60;99.90;;;;;;5057990;28;19970;-78
2022/12/28 07:31:08;;;;;;;;;;;10.60;99.90;;;;;;5057666;28;19909;-78
2022/12/28 07:33:34;;;;;;;;;;;10.60;99.90;;;;;;5057874;28;19923;-78
2022/12/28 07:36:00;;;;;;;;;;;10.60;99.90;;;;;;5058044;28;19917;-78
2022/12/28 07:38:26;;;;;;;;;;;10.70;99.90;;;;;;5056620;28;19916;-78
2022/12/28 07:40:51;;;;;;;;;;;10.70;99.90;;;;;;5057840;28;20378;-78
2022/12/28 07:43:16;;;;;;;;;;;10.60;99.90;;;;;;5057477;28;19940;-79
2022/12/28 07:45:42;;;;;;;;;;;10.60;99.90;;;;;;5056346;28;19908;-78
2022/12/28 07:48:07;;;;;;;;;;;10.60;99.90;;;;;;5057730;28;19909;-78
2022/12/28 07:50:33;;;;;;;;;;;10.60;99.90;;;;;;5056021;28;19909;-79
2022/12/28 07:52:59;;;;;;;;;;;10.60;99.90;;;;;;5057390;28;20408;-78
2022/12/28 07:55:28;;;;;;;;;;;10.60;99.90;;;;;;5057586;28;19908;-79
2022/12/28 07:57:54;;;;;;;;;;;10.70;99.90;;;;;;5057811;28;20389;-78
2022/12/28 08:00:20;;;;;;;;;;;10.70;99.90;;;;;;5057849;28;19948;-78
2022/12/28 08:02:45;;;;;;;;;;;10.70;99.90;;;;;;5057415;28;19920;-78
2022/12/28 08:05:10;;;;;;;;;;;10.80;99.90;;;;;;5057564;28;19913;-78
2022/12/28 08:07:36;;;;;;;;;;;10.80;99.90;;;;;;5055876;28;19913;-78
2022/12/28 08:10:01;;;;;;;;;;;10.80;99.90;;;;;;5057187;28;19909;-79
2022/12/28 08:12:27;;;;;;;;;;;10.80;99.90;;;;;;5056518;28;19924;-78
2022/12/28 08:14:52;;;;;;;;;;;10.90;99.90;;;;;;5057614;28;19909;-78
2022/12/28 08:17:18;;;;;;;;;;;10.90;99.90;;;;;;5056983;28;19977;-78
2022/12/28 08:19:43;;;;;;;;;;;10.90;99.90;;;;;;5057178;28;19909;-78
2022/12/28 08:22:09;;;;;;;;;;;10.90;99.90;;;;;;5055218;28;19909;-78
2022/12/28 08:24:34;;;;;;;;;;;10.80;99.90;;;;;;5056850;28;20487;-78
2022/12/28 08:27:00;;;;;;;;;;;10.80;99.90;;;;;;5053190;28;19920;-80
2022/12/28 08:29:25;;;;;;;;;;;10.80;99.90;;;;;;5052208;28;19909;-81
2022/12/28 08:31:50;;;;;;;;;;;10.90;99.90;;;;;;5054655;28;19909;-80
2022/12/28 08:34:18;;;;;;;;;;;11.00;99.90;;;;;;5053545;28;20362;-81
2022/12/28 08:36:43;;;;;;;;;;;11.00;99.90;;;;;;5053610;28;19915;-81
2022/12/28 08:39:09;;;;;;;;;;;11.10;99.90;;;;;;5052764;28;20003;-80
2022/12/28 08:41:34;;;;;;;;;;;11.10;99.90;;;;;;5036074;28;19910;-80
2022/12/28 08:44:00;;;;;;;;;;;11.00;99.90;;;;;;5034771;28;19921;-79
2022/12/28 08:46:29;;;;;;;;;;;11.00;99.90;;;;;;5034506;28;19909;-80
2022/12/28 08:48:56;;;;;;;;;;;11.00;99.90;;;;;;5033332;28;19970;-80
2022/12/28 08:51:31;;;;;;;;;;;11.00;99.90;;;;;;5040269;28;19909;-80
2022/12/28 08:53:56;;;;;;;;;;;11.10;99.90;;;;;;5054630;28;19920;-79
2022/12/28 08:56:23;;;;;;;;;;;11.10;99.90;;;;;;5054186;28;20366;-80
2022/12/28 08:58:49;;;;;;;;;;;11.20;99.90;;;;;;5054104;28;19999;-80
2022/12/28 09:01:17;;;;;;;;;;;11.10;99.90;;;;;;5054061;28;19912;-82
2022/12/28 09:03:44;;;;;;;;;;;11.20;99.90;;;;;;5052974;28;20252;-80
2022/12/28 09:06:10;;;;;;;;;;;11.20;99.90;;;;;;5054335;28;19913;-81
2022/12/28 09:08:36;;;;;;;;;;;11.20;99.90;;;;;;5053773;28;19952;-80
2022/12/28 09:11:06;;;;;;;;;;;11.10;99.90;;;;;;5052440;28;19909;-80
2022/12/28 09:13:33;;;;;;;;;;;11.20;99.90;;;;;;5052692;28;19915;-80
2022/12/28 09:15:59;;;;;;;;;;;11.20;99.90;;;;;;5049033;28;20267;-80
2022/12/28 09:18:25;;;;;;;;;;;11.30;99.90;;;;;;5069366;28;19999;-82
2022/12/28 09:20:51;;;;;;;;;;;11.30;99.90;;;;;;5038554;28;19949;-81
2022/12/28 09:23:16;;;;;;;;;;;11.40;99.90;;;;;;5033491;28;19917;-82
2022/12/28 09:25:41;;;;;;;;;;;11.40;99.90;;;;;;5034569;28;19956;-80
2022/12/28 09:28:07;;;;;;;;;;;11.40;99.90;;;;;;5045447;28;20366;-79
2022/12/28 09:30:32;;;;;;;;;;;11.30;99.90;;;;;;5064824;28;19908;-79
2022/12/28 09:35:42;;;;;;;;;;;11.50;99.90;;;;;;5033550;28;19924;-79
2022/12/28 09:38:07;;;;;;;;;;;11.60;99.90;;;;;;5033240;28;19917;-80
2022/12/28 09:40:33;;;;;;;;;;;11.50;99.90;;;;;;5033317;28;20004;-80
2022/12/28 09:42:59;;;;;;;;;;;11.60;99.90;;;;;;5031659;28;19939;-79
2022/12/28 09:45:25;;;;;;;;;;;11.70;99.90;;;;;;5031508;28;19921;-80
2022/12/28 09:47:51;;;;;;;;;;;11.70;99.90;;;;;;5032041;28;19913;-81
2022/12/28 09:50:17;;;;;;;;;;;11.70;99.90;;;;;;5033005;28;20305;-82
2022/12/28 09:53:02;;;;;;;;;;;11.80;99.90;;;;;;5032039;28;19913;-81
2022/12/28 09:55:27;;;;;;;;;;;11.90;99.90;;;;;;5032024;28;19995;-82
2022/12/28 09:57:54;;;;;;;;;;;12.00;99.90;;;;;;5033101;28;19948;-82
2022/12/28 10:00:21;;;;;;;;;;;11.90;99.90;;;;;;5033013;28;19970;-80
2022/12/28 10:02:52;;;;;;;;;;;11.90;99.90;;;;;;5031675;28;19913;-82
2022/12/28 10:05:19;;;;;;;;;;;12.00;99.90;;;;;;5032823;28;20481;-82
2022/12/28 10:07:44;;;;;;;;;;;11.90;99.90;;;;;;5032244;28;20275;-82
2022/12/28 10:10:13;;;;;;;;;;;11.90;99.90;;;;;;5031670;28;19916;-81
2022/12/28 10:12:42;;;;;;;;;;;11.90;99.90;;;;;;5032555;28;19913;-81
2022/12/28 10:15:10;;;;;;;;;;;11.90;99.90;;;;;;5032678;28;19964;-81
2022/12/28 10:17:37;;;;;;;;;;;12.00;99.90;;;;;;5042395;28;19917;-82
2022/12/28 10:20:02;;;;;;;;;;;12.00;99.90;;;;;;5044120;28;19909;-80
2022/12/28 10:22:33;;;;;;;;;;;12.00;99.90;;;;;;5038564;28;19916;-81
2022/12/28 10:24:58;;;;;;;;;;;12.00;99.90;;;;;;5032503;28;19914;-80
2022/12/28 10:27:28;;;;;;;;;;;12.00;99.90;;;;;;5047153;28;20342;-81
2022/12/28 10:29:53;;;;;;;;;;;12.10;99.90;;;;;;5051216;28;20341;-80
2022/12/28 10:32:19;;;;;;;;;;;12.00;99.90;;;;;;5035114;28;20009;-81
2022/12/28 10:34:58;;;;;;;;;;;12.10;99.90;;;;;;5032317;28;19913;-81
2022/12/28 10:37:25;;;;;;;;;;;12.20;99.90;;;;;;5031640;28;19913;-81
2022/12/28 10:39:58;;;;;;;;;;;12.20;99.90;;;;;;5036779;28;19915;-82
2022/12/28 10:42:27;;;;;;;;;;;12.20;99.90;;;;;;5035656;28;19909;-80
2022/12/28 10:44:55;;;;;;;;;;;12.30;99.90;;;;;;5043913;28;19920;-86
2022/12/28 10:47:23;;;;;;;;;;;12.50;99.90;;;;;;5042198;28;19955;-86
2022/12/28 10:49:50;;;;;;;;;;;12.60;99.90;;;;;;5050940;28;19999;-86
2022/12/28 10:52:15;;;;;;;;;;;12.80;99.90;;;;;;5050928;28;19919;-86
2022/12/28 10:54:41;;;;;;;;;;;12.80;99.90;;;;;;5051373;28;20341;-86
2022/12/28 10:57:15;;;;;;;;;;;12.70;99.90;;;;;;5050759;28;20278;-86
2022/12/28 10:59:42;;;;;;;;;;;12.60;99.90;;;;;;5051193;28;19966;-86
2022/12/28 11:02:27;;;;;;;;;;;12.70;99.90;;;;;;5050534;28;19951;-87
2022/12/28 11:04:57;;;;;;;;;;;12.60;99.90;;;;;;5051164;28;19913;-85
2022/12/28 11:07:28;;;;;;;;;;;12.60;99.90;;;;;;5051112;28;19955;-85
2022/12/28 11:09:53;;;;;;;;;;;12.60;99.90;;;;;;5050680;28;20366;-84
2022/12/28 11:12:22;;;;;;;;;;;12.50;99.90;;;;;;5050653;28;19920;-83
2022/12/28 11:14:48;;;;;;;;;;;12.60;99.90;;;;;;5054555;28;19931;-84
2022/12/28 11:17:16;;;;;;;;;;;12.60;99.90;;;;;;5069451;28;19909;-83
2022/12/28 11:19:42;;;;;;;;;;;12.50;99.90;;;;;;5055729;28;20274;-86
2022/12/28 11:22:11;;;;;;;;;;;12.60;99.90;;;;;;5050586;28;19916;-81
2022/12/28 11:24:38;;;;;;;;;;;12.40;99.90;;;;;;5053692;28;19947;-82
2022/12/28 11:27:03;;;;;;;;;;;12.40;99.90;;;;;;5053691;28;19916;-83
2022/12/28 11:29:29;;;;;;;;;;;12.30;99.90;;;;;;5052985;28;20363;-83
2022/12/28 11:31:58;;;;;;;;;;;12.40;99.90;;;;;;5052637;28;20003;-82
2022/12/28 11:34:25;;;;;;;;;;;12.40;99.90;;;;;;5053112;28;20007;-83
2022/12/28 11:36:50;;;;;;;;;;;12.40;99.90;;;;;;5051782;28;19916;-82
2022/12/28 11:39:25;;;;;;;;;;;12.40;99.90;;;;;;5052993;28;19913;-82
2022/12/28 11:41:54;;;;;;;;;;;12.40;99.90;;;;;;5052735;28;19995;-82
2022/12/28 11:44:43;;;;;;;;;;;12.30;99.90;;;;;;5052778;28;19913;-80
2022/12/28 11:47:14;;;;;;;;;;;12.30;99.90;;;;;;5051128;28;19931;-83
2022/12/28 11:49:40;;;;;;;;;;;12.30;99.90;;;;;;5051280;28;20273;-80
2022/12/28 11:52:26;;;;;;;;;;;12.30;99.90;;;;;;5051281;28;19984;-80
2022/12/28 11:54:59;;;;;;;;;;;12.20;99.90;;;;;;5051223;28;19921;-80
2022/12/28 11:57:38;;;;;;;;;;;12.10;99.90;;;;;;5052810;28;19915;-81
2022/12/28 12:00:27;;;;;;;;;;;12.00;99.90;;;;;;5052023;28;19964;-82
2022/12/28 12:02:55;;;;;;;;;;;11.90;99.90;;;;;;5050672;28;19909;-81
2022/12/28 12:05:36;;;;;;;;;;;12.00;99.90;;;;;;5052579;28;19936;-81
2022/12/28 12:08:21;;;;;;;;;;;12.00;99.90;;;;;;5053245;28;19916;-83
2022/12/28 12:10:47;;;;;;;;;;;11.90;99.90;;;;;;5052169;28;19919;-83
2022/12/28 12:13:22;;;;;;;;;;;11.90;99.90;;;;;;5052254;28;20051;-82
2022/12/28 12:15:48;;;;;;;;;;;11.90;99.90;;;;;;5056250;28;20376;-80
2022/12/28 12:18:24;;;;;;;;;;;11.90;99.90;;;;;;5056087;28;19986;-80
2022/12/28 12:21:04;;;;;;;;;;;11.80;99.90;;;;;;5056639;28;20438;-80
2022/12/28 12:23:39;;;;;;;;;;;11.80;99.90;;;;;;5056131;28;19909;-83
2022/12/28 12:26:19;;;;;;;;;;;11.90;99.90;;;;;;5055813;28;20367;-82
2022/12/28 12:28:52;;;;;;;;;;;11.90;99.90;;;;;;5054301;28;19913;-81
2022/12/28 12:31:28;;;;;;;;;;;11.90;99.90;;;;;;5055501;28;20274;-83
2022/12/28 12:33:55;;;;;;;;;;;11.90;99.90;;;;;;5054641;28;19909;-82
2022/12/28 12:36:28;;;;;;;;;;;11.80;99.90;;;;;;5055885;28;20268;-80
2022/12/28 12:39:02;;;;;;;;;;;11.80;99.90;;;;;;5055561;28;19909;-81
2022/12/28 12:41:27;;;;;;;;;;;11.80;99.90;;;;;;5054919;28;20285;-80
2022/12/28 12:43:52;;;;;;;;;;;11.70;99.90;;;;;;5053944;28;19913;-80
2022/12/28 12:46:18;;;;;;;;;;;11.80;99.90;;;;;;5055832;28;20290;-80
2022/12/28 12:48:46;;;;;;;;;;;11.90;99.90;;;;;;5055323;28;20333;-80
2022/12/28 12:51:24;;;;;;;;;;;11.90;99.90;;;;;;5055214;28;19944;-80
2022/12/28 12:53:58;;;;;;;;;;;11.80;99.90;;;;;;5055157;28;19909;-81
2022/12/28 12:56:27;;;;;;;;;;;11.80;99.90;;;;;;5055522;28;19913;-80
2022/12/28 12:58:55;;;;;;;;;;;11.80;99.90;;;;;;5054770;28;20333;-80
2022/12/28 13:01:26;;;;;;;;;;;11.80;99.90;;;;;;5055217;28;19912;-82
2022/12/28 13:03:52;;;;;;;;;;;11.70;99.90;;;;;;5053495;28;19912;-80
2022/12/28 13:06:20;;;;;;;;;;;11.80;99.90;;;;;;5054870;28;20389;-80
2022/12/28 13:08:48;;;;;;;;;;;11.80;99.90;;;;;;5054867;28;19909;-81
2022/12/28 13:11:15;;;;;;;;;;;11.70;99.90;;;;;;5053072;28;19916;-80
2022/12/28 13:13:42;;;;;;;;;;;11.70;99.90;;;;;;5053348;28;20011;-82
2022/12/28 13:16:15;;;;;;;;;;;11.80;99.90;;;;;;5054780;28;19908;-80
2022/12/28 13:18:51;;;;;;;;;;;11.80;99.90;;;;;;5055026;28;20385;-79
2022/12/28 13:21:20;;;;;;;;;;;11.80;99.90;;;;;;5054935;28;19915;-80
2022/12/28 13:23:45;;;;;;;;;;;11.70;99.90;;;;;;5054521;28;19917;-78
2022/12/28 13:26:13;;;;;;;;;;;11.80;99.90;;;;;;5055400;28;20378;-78
2022/12/28 13:28:44;;;;;;;;;;;11.80;99.90;;;;;;5053440;28;19909;-78
2022/12/28 13:31:15;;;;;;;;;;;11.70;99.90;;;;;;5053421;28;19962;-78
2022/12/28 13:33:41;;;;;;;;;;;11.70;99.90;;;;;;5055173;28;20282;-78
2022/12/28 13:36:13;;;;;;;;;;;11.70;99.90;;;;;;5054755;28;19995;-79
2022/12/28 13:38:38;;;;;;;;;;;11.70;99.90;;;;;;5054766;28;19909;-80
2022/12/28 13:41:09;;;;;;;;;;;11.70;99.90;;;;;;5054922;28;19909;-79
2022/12/28 13:43:51;;;;;;;;;;;11.70;99.90;;;;;;5054611;28;19913;-79
2022/12/28 13:46:18;;;;;;;;;;;11.80;99.90;;;;;;5054725;28;19908;-80
2022/12/28 13:48:47;;;;;;;;;;;11.70;99.90;;;;;;5053184;28;19996;-78
2022/12/28 13:51:14;;;;;;;;;;;11.70;99.90;;;;;;5052956;28;20004;-80
2022/12/28 13:53:43;;;;;;;;;;;11.70;99.90;;;;;;5054728;28;19948;-78
2022/12/28 13:56:10;;;;;;;;;;;11.70;99.90;;;;;;5054879;28;20111;-78
2022/12/28 13:58:38;;;;;;;;;;;11.70;99.90;;;;;;5053116;28;19913;-78
2022/12/28 14:01:08;;;;;;;;;;;11.60;99.90;;;;;;5091983;23;19925;-80
2022/12/28 14:03:36;;;;;;;;;;;11.70;99.90;;;;;;5089680;28;19938;-80
2022/12/28 14:06:02;;;;;;;;;;;11.60;99.90;;;;;;5075004;28;19935;-80
2022/12/28 14:08:28;;;;;;;;;;;11.60;99.90;;;;;;5090197;28;20331;-80
2022/12/28 14:10:54;;;;;;;;;;;11.60;99.90;;;;;;5074478;28;19908;-80
2022/12/28 14:13:20;;;;;;;;;;;11.60;99.90;;;;;;5073037;28;20281;-80
2022/12/28 14:15:46;;;;;;;;;;;11.60;99.90;;;;;;5072642;28;19909;-80
2022/12/28 14:18:13;;;;;;;;;;;11.60;99.90;;;;;;5089848;28;20000;-81
2022/12/28 14:20:45;;;;;;;;;;;11.60;99.90;;;;;;5090836;28;19913;-81
2022/12/28 14:23:24;;;;;;;;;;;11.60;99.90;;;;;;5075655;28;19908;-80
2022/12/28 14:25:50;;;;;;;;;;;11.60;99.90;;;;;;5074416;28;20366;-81
2022/12/28 14:28:22;;;;;;;;;;;11.60;99.90;;;;;;5074431;28;19930;-81
2022/12/28 14:30:52;;;;;;;;;;;11.70;99.90;;;;;;5075168;28;19947;-80
2022/12/28 14:33:19;;;;;;;;;;;11.70;99.90;;;;;;5073620;28;20377;-80
2022/12/28 14:35:46;;;;;;;;;;;11.70;99.90;;;;;;5072391;28;19989;-80
2022/12/28 14:38:16;;;;;;;;;;;11.70;99.90;;;;;;5073686;28;19909;-81
2022/12/28 14:40:42;;;;;;;;;;;11.80;99.90;;;;;;5071864;28;19916;-81
2022/12/28 14:43:21;;;;;;;;;;;11.70;99.90;;;;;;5072782;28;20249;-81
2022/12/28 14:45:46;;;;;;;;;;;11.70;99.90;;;;;;5073019;28;19912;-81
2022/12/28 14:48:31;;;;;;;;;;;11.70;99.90;;;;;;5072844;28;20437;-81
2022/12/28 14:51:04;;;;;;;;;;;11.60;99.90;;;;;;5072445;28;19951;-81